Time;durP1;ratioP1;P1;durP2;ratioP2;P2;SDS_P1;SDS_P2;PMS_P1;PMS_P2;Temp;Humidity;BMP_temperature;BMP_pressure;BME280_temperature;BME280_humidity;BME280_pressure;Samples;Min_cycle;Max_cycle;Signal;HPM_P1;HPM_P2
2024/03/22 00:02:59;;;;;;;0.53;0.53;;;11.40;99.90;;;;;;10494705;28;20220;-76
2024/03/22 00:08:03;;;;;;;0.50;0.50;;;11.40;99.90;;;;;;10494397;28;20237;-75
2024/03/22 00:13:08;;;;;;;0.60;0.60;;;11.40;99.90;;;;;;10493921;28;20201;-76
2024/03/22 00:18:11;;;;;;;0.60;0.60;;;11.40;99.90;;;;;;10488736;28;20714;-77
2024/03/22 00:23:14;;;;;;;0.70;0.70;;;11.30;99.90;;;;;;10492876;28;20233;-73
2024/03/22 00:28:17;;;;;;;0.63;0.63;;;11.30;99.90;;;;;;10492649;28;20266;-80
2024/03/22 00:33:19;;;;;;;0.60;0.60;;;11.20;99.90;;;;;;10491388;28;20701;-76
2024/03/22 00:38:23;;;;;;;0.60;0.60;;;11.20;99.90;;;;;;10492385;28;20689;-75
2024/03/22 00:43:25;;;;;;;0.50;0.50;;;11.10;99.90;;;;;;10488447;28;20216;-75
2024/03/22 00:48:28;;;;;;;0.50;0.50;;;11.10;99.90;;;;;;10487913;28;20224;-76
2024/03/22 00:53:32;;;;;;;0.50;0.50;;;11.00;99.90;;;;;;10491371;28;20193;-75
2024/03/22 00:58:34;;;;;;;0.50;0.50;;;10.90;99.90;;;;;;10490845;28;20224;-75
2024/03/22 01:03:36;;;;;;;0.50;0.50;;;10.90;99.90;;;;;;10491452;28;20273;-75
2024/03/22 01:08:40;;;;;;;0.50;0.50;;;10.80;99.90;;;;;;10489558;28;20216;-75
2024/03/22 01:13:42;;;;;;;0.60;0.60;;;10.80;99.90;;;;;;10489974;28;20241;-75
2024/03/22 01:18:45;;;;;;;0.50;0.50;;;10.80;99.90;;;;;;10489360;28;20220;-75
2024/03/22 01:23:48;;;;;;;0.60;0.60;;;10.80;99.90;;;;;;10485812;28;20213;-75
2024/03/22 01:28:51;;;;;;;0.60;0.60;;;10.70;99.90;;;;;;10490477;28;20209;-76
2024/03/22 01:33:53;;;;;;;0.73;0.73;;;10.70;99.90;;;;;;10490302;28;20574;-74
2024/03/22 01:38:57;;;;;;;0.60;0.60;;;10.70;99.90;;;;;;10490186;28;20224;-79
2024/03/22 01:43:59;;;;;;;0.50;0.50;;;10.60;99.90;;;;;;10490543;28;20220;-75
2024/03/22 01:49:02;;;;;;;0.50;0.50;;;10.60;99.90;;;;;;10489737;28;20232;-77
2024/03/22 01:54:09;;;;;;;0.50;0.50;;;10.60;99.90;;;;;;10490360;28;20207;-75
2024/03/22 01:59:11;;;;;;;0.60;0.60;;;10.50;99.90;;;;;;10491648;28;20254;-75
2024/03/22 02:04:14;;;;;;;0.50;0.50;;;10.40;99.90;;;;;;10492584;28;20758;-77
2024/03/22 02:09:19;;;;;;;0.60;0.60;;;10.30;99.90;;;;;;10498190;28;20717;-78
2024/03/22 02:14:21;;;;;;;0.63;0.63;;;10.20;99.90;;;;;;10498177;28;20208;-75
2024/03/22 02:19:24;;;;;;;0.67;0.67;;;10.20;99.90;;;;;;10496955;28;20217;-78
2024/03/22 02:24:27;;;;;;;0.63;0.63;;;10.10;99.90;;;;;;10492578;28;20693;-76
2024/03/22 02:29:30;;;;;;;0.57;0.57;;;10.10;99.90;;;;;;10497402;28;20580;-75
2024/03/22 02:34:32;;;;;;;0.57;0.57;;;10.00;99.90;;;;;;10497067;28;20203;-77
2024/03/22 02:39:36;;;;;;;0.60;0.60;;;10.00;99.90;;;;;;10496969;28;20208;-76
2024/03/22 02:44:42;;;;;;;0.60;0.60;;;10.00;99.90;;;;;;10496180;28;20278;-79
2024/03/22 02:49:45;;;;;;;0.50;0.50;;;10.00;99.90;;;;;;10495370;28;20200;-76
2024/03/22 02:54:48;;;;;;;0.80;0.80;;;10.00;99.90;;;;;;10496413;28;20242;-75
2024/03/22 02:59:50;;;;;;;0.80;0.80;;;10.00;99.90;;;;;;10494918;28;20197;-77
2024/03/22 03:04:53;;;;;;;0.80;0.80;;;9.90;99.90;;;;;;10494914;28;20243;-78
2024/03/22 03:09:56;;;;;;;0.80;0.80;;;9.90;99.90;;;;;;10485961;28;20208;-77
2024/03/22 03:14:59;;;;;;;0.70;0.70;;;9.80;99.90;;;;;;10495328;28;20208;-75
2024/03/22 03:20:02;;;;;;;0.90;0.90;;;9.80;99.90;;;;;;10494184;28;20254;-75
2024/03/22 03:25:06;;;;;;;0.80;0.80;;;9.90;99.90;;;;;;10495309;28;20224;-75
2024/03/22 03:30:09;;;;;;;0.90;0.90;;;10.00;99.90;;;;;;10489980;28;20299;-75
2024/03/22 03:35:12;;;;;;;0.70;0.70;;;10.00;99.90;;;;;;10494790;28;20213;-76
2024/03/22 03:40:15;;;;;;;0.90;0.90;;;10.00;99.90;;;;;;10494092;28;20673;-75
2024/03/22 03:45:18;;;;;;;0.90;0.90;;;10.00;99.90;;;;;;10494623;28;20734;-75
2024/03/22 03:50:20;;;;;;;0.80;0.80;;;10.00;99.90;;;;;;10494157;28;20208;-74
2024/03/22 03:55:24;;;;;;;0.90;0.90;;;10.00;99.90;;;;;;10494422;28;20258;-77
2024/03/22 04:00:27;;;;;;;0.70;0.70;;;10.00;99.90;;;;;;10493722;28;20200;-75
2024/03/22 04:05:29;;;;;;;1.20;1.20;;;10.00;99.90;;;;;;10491776;28;20216;-74
2024/03/22 04:10:32;;;;;;;0.97;0.97;;;10.00;99.90;;;;;;10493776;28;20567;-78
2024/03/22 04:15:35;;;;;;;0.90;0.90;;;10.00;99.90;;;;;;10493197;28;20293;-75
2024/03/22 04:20:38;;;;;;;0.80;0.80;;;10.10;99.90;;;;;;10492129;28;20196;-76
2024/03/22 04:25:41;;;;;;;1.00;1.00;;;10.10;99.90;;;;;;10493264;28;20224;-77
2024/03/22 04:30:44;;;;;;;0.80;0.80;;;10.20;99.90;;;;;;10495663;28;20219;-79
2024/03/22 04:35:46;;;;;;;0.60;0.60;;;10.10;99.90;;;;;;10489414;28;20632;-75
2024/03/22 04:40:50;;;;;;;0.90;0.90;;;10.20;99.90;;;;;;10491081;28;20758;-75
2024/03/22 04:45:53;;;;;;;0.90;0.90;;;10.20;99.90;;;;;;10492127;28;20220;-75
2024/03/22 04:50:55;;;;;;;1.00;1.00;;;10.30;99.90;;;;;;10488232;28;20616;-78
2024/03/22 04:55:59;;;;;;;0.80;0.80;;;10.30;99.90;;;;;;10478991;28;20216;-75
2024/03/22 05:01:01;;;;;;;0.80;0.80;;;10.50;99.90;;;;;;10492033;28;20254;-75
2024/03/22 05:06:06;;;;;;;0.70;0.70;;;10.50;99.90;;;;;;10487882;28;20278;-79
2024/03/22 05:11:09;;;;;;;0.80;0.80;;;10.60;99.90;;;;;;10486016;28;20257;-75
2024/03/22 05:16:12;;;;;;;0.90;0.90;;;10.60;99.90;;;;;;10487965;28;20209;-77
2024/03/22 05:21:14;;;;;;;0.70;0.70;;;10.60;99.90;;;;;;10484875;28;20204;-76
2024/03/22 05:26:19;;;;;;;0.40;0.40;;;10.70;99.90;;;;;;10489204;28;20254;-75
2024/03/22 05:31:21;;;;;;;0.83;0.83;;;10.70;99.90;;;;;;10489802;28;20192;-75
2024/03/22 05:36:23;;;;;;;0.80;0.80;;;10.70;99.90;;;;;;10488558;28;20215;-75
2024/03/22 05:41:27;;;;;;;1.07;1.07;;;10.70;99.90;;;;;;10489819;28;20250;-75
2024/03/22 05:46:29;;;;;;;1.00;1.00;;;10.70;99.90;;;;;;10488223;28;20219;-75
2024/03/22 05:51:32;;;;;;;0.60;0.60;;;10.80;99.90;;;;;;10482505;28;20221;-75
2024/03/22 05:56:36;;;;;;;0.73;0.73;;;10.80;99.90;;;;;;10485577;28;20212;-75
2024/03/22 06:01:39;;;;;;;0.77;0.77;;;10.90;99.90;;;;;;10490070;28;20227;-75
2024/03/22 06:06:41;;;;;;;1.00;1.00;;;10.90;99.90;;;;;;10489596;28;20593;-76
2024/03/22 06:11:45;;;;;;;0.80;0.80;;;11.00;99.90;;;;;;10488465;28;20200;-76
2024/03/22 06:16:48;;;;;;;0.90;0.90;;;11.00;99.90;;;;;;10489397;28;20212;-76
2024/03/22 06:21:50;;;;;;;0.70;0.70;;;11.10;99.90;;;;;;10488992;28;20188;-76
2024/03/22 06:26:54;;;;;;;0.70;0.70;;;11.10;99.90;;;;;;10489108;28;20714;-75
2024/03/22 06:31:56;;;;;;;0.60;0.60;;;11.10;99.90;;;;;;10481666;28;20204;-75
2024/03/22 06:36:58;;;;;;;0.80;0.80;;;11.10;99.90;;;;;;10488784;28;20220;-75
2024/03/22 06:42:02;;;;;;;0.70;0.70;;;11.10;99.90;;;;;;10489131;28;20213;-76
2024/03/22 06:47:05;;;;;;;0.63;0.63;;;11.20;99.90;;;;;;10495588;28;20232;-76
2024/03/22 06:52:07;;;;;;;0.70;0.70;;;11.30;99.90;;;;;;10479559;28;20793;-76
2024/03/22 06:57:11;;;;;;;0.80;0.80;;;11.40;99.90;;;;;;10489651;28;20747;-76
2024/03/22 07:02:14;;;;;;;1.00;1.00;;;11.50;99.90;;;;;;10496187;28;20204;-76
2024/03/22 07:07:16;;;;;;;0.80;0.80;;;11.60;99.90;;;;;;10495605;28;20736;-74
2024/03/22 07:12:20;;;;;;;0.80;0.80;;;11.80;99.90;;;;;;10495832;28;20219;-75
2024/03/22 07:17:24;;;;;;;0.70;0.70;;;11.90;99.90;;;;;;10495782;28;20270;-76
2024/03/22 07:22:26;;;;;;;0.73;0.73;;;12.10;99.90;;;;;;10494546;28;20204;-75
2024/03/22 07:27:31;;;;;;;0.90;0.90;;;12.10;99.90;;;;;;10494873;28;20713;-76
2024/03/22 07:32:33;;;;;;;0.70;0.70;;;12.10;99.90;;;;;;10491953;28;20204;-76
2024/03/22 07:37:36;;;;;;;0.70;0.70;;;12.10;99.90;;;;;;10492319;28;20212;-77
2024/03/22 07:42:39;;;;;;;0.90;0.90;;;12.10;99.90;;;;;;10494689;28;20208;-76
2024/03/22 07:47:43;;;;;;;0.90;0.90;;;12.10;99.90;;;;;;10494167;28;20709;-76
2024/03/22 07:52:45;;;;;;;1.00;1.00;;;12.10;99.90;;;;;;10494205;28;20212;-76
2024/03/22 07:57:49;;;;;;;0.80;0.80;;;12.20;99.90;;;;;;10493188;28;20209;-77
2024/03/22 08:02:51;;;;;;;0.90;0.90;;;12.30;99.90;;;;;;10494106;28;20193;-75
2024/03/22 08:07:54;;;;;;;0.90;0.90;;;12.30;99.90;;;;;;10492896;28;20255;-76
2024/03/22 08:12:57;;;;;;;0.80;0.80;;;12.50;99.90;;;;;;10491859;28;20200;-76
2024/03/22 08:18:00;;;;;;;0.70;0.70;;;12.60;99.90;;;;;;10492888;28;20713;-76
2024/03/22 08:23:02;;;;;;;1.00;1.00;;;12.70;99.90;;;;;;10491900;28;20208;-76
2024/03/22 08:28:06;;;;;;;0.70;0.70;;;12.90;99.90;;;;;;10492569;28;20232;-76
2024/03/22 08:33:08;;;;;;;0.63;0.63;;;13.10;99.90;;;;;;10492591;28;20623;-76
2024/03/22 08:38:14;;;;;;;0.70;0.70;;;13.50;99.90;;;;;;10492144;28;20216;-76
2024/03/22 08:43:18;;;;;;;0.50;0.50;;;13.90;99.90;;;;;;10490942;28;20209;-76
2024/03/22 08:48:20;;;;;;;0.60;0.60;;;14.40;99.90;;;;;;10491989;28;20212;-76
2024/03/22 08:53:22;;;;;;;0.40;0.40;;;14.90;99.80;;;;;;10491629;28;20662;-76
2024/03/22 08:58:27;;;;;;;0.50;0.50;;;15.40;98.60;;;;;;10491624;28;20208;-77
2024/03/22 09:03:30;;;;;;;0.60;0.60;;;15.70;98.20;;;;;;10490131;28;20204;-77
2024/03/22 09:08:33;;;;;;;0.60;0.60;;;16.00;97.20;;;;;;10490238;28;20273;-77
2024/03/22 09:13:37;;;;;;;0.70;0.70;;;16.20;98.00;;;;;;10490523;28;20608;-76
2024/03/22 09:18:40;;;;;;;0.50;0.50;;;16.30;97.70;;;;;;10490487;28;20201;-76
2024/03/22 09:23:42;;;;;;;0.50;0.50;;;16.40;97.00;;;;;;10490552;28;20192;-76
2024/03/22 09:28:48;;;;;;;0.60;0.60;;;16.50;97.40;;;;;;10490367;28;20270;-77
2024/03/22 09:33:50;;;;;;;0.60;0.60;;;16.50;97.30;;;;;;10491988;28;20203;-76
2024/03/22 09:38:53;;;;;;;0.60;0.60;;;16.50;97.30;;;;;;10483551;28;20213;-76
2024/03/22 09:44:00;;;;;;;0.60;0.60;;;16.70;95.80;;;;;;10490238;28;20203;-76
2024/03/22 09:49:03;;;;;;;0.60;0.60;;;16.90;95.60;;;;;;10483149;28;20273;-77
2024/03/22 09:54:06;;;;;;;0.60;0.60;;;17.20;93.80;;;;;;10481718;28;20204;-77
2024/03/22 09:59:11;;;;;;;0.60;0.60;;;17.40;93.20;;;;;;10487218;28;20285;-78
2024/03/22 10:04:13;;;;;;;0.70;0.70;;;17.70;92.60;;;;;;10487596;28;20208;-78
2024/03/22 10:09:17;;;;;;;0.57;0.57;;;17.80;91.20;;;;;;10487007;28;20239;-77
2024/03/22 10:14:21;;;;;;;0.60;0.60;;;18.00;90.50;;;;;;10481348;28;20692;-75
2024/03/22 10:19:24;;;;;;;0.80;0.80;;;18.20;89.00;;;;;;10488635;28;20224;-76
2024/03/22 10:24:26;;;;;;;0.70;0.70;;;18.40;90.00;;;;;;10493404;28;20200;-74
2024/03/22 10:29:30;;;;;;;0.60;0.60;;;18.40;90.10;;;;;;10494132;28;20228;-75
2024/03/22 10:34:34;;;;;;;0.50;0.50;;;18.40;90.60;;;;;;10494874;28;20204;-75
2024/03/22 10:39:38;;;;;;;0.60;0.60;;;18.30;88.80;;;;;;10492757;28;20616;-76
2024/03/22 10:44:42;;;;;;;0.60;0.60;;;18.20;87.70;;;;;;10494776;28;20200;-76
2024/03/22 10:49:50;;;;;;;0.60;0.60;;;18.00;89.80;;;;;;10494465;28;20216;-76
2024/03/22 10:54:52;;;;;;;0.60;0.60;;;17.80;88.60;;;;;;10493633;28;20247;-76
2024/03/22 10:59:57;;;;;;;0.63;0.63;;;17.70;85.80;;;;;;10488696;28;20689;-76
2024/03/22 11:05:00;;;;;;;0.60;0.60;;;17.60;89.30;;;;;;10493302;28;20652;-77
2024/03/22 11:10:03;;;;;;;0.60;0.60;;;17.50;90.80;;;;;;10488075;28;20212;-77
2024/03/22 11:15:09;;;;;;;0.60;0.60;;;17.40;91.50;;;;;;10493787;28;20596;-76
2024/03/22 11:20:11;;;;;;;0.60;0.60;;;17.40;91.50;;;;;;10491188;28;20255;-77
2024/03/22 11:25:14;;;;;;;0.70;0.70;;;17.40;89.90;;;;;;10493011;28;20226;-76
2024/03/22 11:30:18;;;;;;;0.70;0.70;;;17.60;88.40;;;;;;10492058;28;20221;-76
2024/03/22 11:35:21;;;;;;;0.60;0.60;;;17.60;90.60;;;;;;10488402;28;20262;-76
2024/03/22 11:40:24;;;;;;;0.50;0.50;;;17.60;90.90;;;;;;10492087;28;20200;-75
2024/03/22 11:45:29;;;;;;;0.60;0.60;;;17.60;90.00;;;;;;10488611;28;20229;-78
2024/03/22 11:50:31;;;;;;;0.50;0.50;;;17.70;86.60;;;;;;10489514;28;20208;-76
2024/03/22 11:55:36;;;;;;;0.83;0.83;;;17.70;84.80;;;;;;10491594;28;20242;-76
2024/03/22 12:00:40;;;;;;;0.50;0.50;;;17.80;86.30;;;;;;10491199;28;20193;-77
2024/03/22 12:05:42;;;;;;;0.70;0.70;;;17.90;88.00;;;;;;10491072;28;20585;-76
2024/03/22 12:10:45;;;;;;;0.67;0.67;;;18.10;89.80;;;;;;10491853;28;20193;-76
2024/03/22 12:15:48;;;;;;;0.77;0.77;;;18.20;89.40;;;;;;10490947;28;20216;-77
2024/03/22 12:20:51;;;;;;;0.80;0.80;;;18.40;86.60;;;;;;10489673;28;20197;-76
2024/03/22 12:25:54;;;;;;;0.80;0.80;;;18.60;85.70;;;;;;10489475;28;20240;-76
2024/03/22 12:30:57;;;;;;;0.70;0.70;;;18.80;84.60;;;;;;10491042;28;20618;-76
2024/03/22 12:36:00;;;;;;;0.60;0.60;;;19.00;83.70;;;;;;10482436;28;20732;-76
2024/03/22 12:41:02;;;;;;;0.70;0.70;;;19.10;84.60;;;;;;10490652;28;20196;-77
2024/03/22 12:46:06;;;;;;;0.80;0.80;;;19.10;81.20;;;;;;10488582;28;20251;-76
2024/03/22 12:51:09;;;;;;;0.50;0.50;;;19.10;83.20;;;;;;10490744;28;20425;-76
2024/03/22 12:56:11;;;;;;;0.70;0.70;;;19.00;86.00;;;;;;10489770;28;20224;-74
2024/03/22 13:01:15;;;;;;;0.60;0.60;;;18.90;86.70;;;;;;10489709;28;20204;-76
2024/03/22 13:06:18;;;;;;;0.50;0.50;;;18.80;87.10;;;;;;10489267;28;20232;-76
2024/03/22 13:11:20;;;;;;;0.43;0.43;;;18.80;87.90;;;;;;10489459;28;20610;-76
2024/03/22 13:16:24;;;;;;;0.50;0.50;;;18.70;87.90;;;;;;10488265;28;20224;-75
2024/03/22 13:21:26;;;;;;;0.60;0.60;;;18.60;86.60;;;;;;10487739;28;20622;-76
2024/03/22 13:26:29;;;;;;;0.70;0.70;;;18.60;84.50;;;;;;10488867;28;20235;-76
2024/03/22 13:31:32;;;;;;;0.50;0.50;;;18.70;84.60;;;;;;10489033;28;20201;-75
2024/03/22 13:36:37;;;;;;;0.60;0.60;;;18.70;83.90;;;;;;10488612;28;20220;-76
2024/03/22 13:41:40;;;;;;;0.60;0.60;;;18.80;85.00;;;;;;10480567;28;20204;-76
2024/03/22 13:46:43;;;;;;;0.60;0.60;;;18.80;86.80;;;;;;10486870;28;20220;-76
2024/03/22 13:51:46;;;;;;;0.60;0.60;;;18.70;88.30;;;;;;10487984;28;20188;-77
2024/03/22 13:56:48;;;;;;;0.50;0.50;;;18.80;87.50;;;;;;10500089;28;20246;-77
2024/03/22 14:01:52;;;;;;;0.50;0.50;;;18.80;88.10;;;;;;10501499;28;20269;-77
2024/03/22 14:06:54;;;;;;;0.70;0.70;;;18.80;85.70;;;;;;10501431;28;20235;-77
2024/03/22 14:11:57;;;;;;;0.40;0.40;;;18.80;85.70;;;;;;10501532;28;20196;-77
2024/03/22 14:17:00;;;;;;;0.43;0.43;;;18.80;85.30;;;;;;10490874;28;20220;-76
2024/03/22 14:22:03;;;;;;;0.50;0.50;;;18.80;87.60;;;;;;10496757;28;20212;-76
2024/03/22 14:27:05;;;;;;;0.40;0.40;;;18.80;86.20;;;;;;10498602;28;20224;-77
2024/03/22 14:32:09;;;;;;;0.40;0.40;;;18.80;87.20;;;;;;10499178;28;20697;-77
2024/03/22 14:37:12;;;;;;;0.50;0.50;;;18.80;86.90;;;;;;10501734;28;20220;-75
2024/03/22 14:42:14;;;;;;;0.33;0.33;;;18.80;86.50;;;;;;10502292;28;20204;-77
2024/03/22 14:47:19;;;;;;;0.60;0.60;;;18.70;85.40;;;;;;10501649;28;20232;-78
2024/03/22 14:52:21;;;;;;;0.50;0.50;;;18.60;83.20;;;;;;10502158;28;20208;-77
2024/03/22 14:57:24;;;;;;;0.40;0.40;;;18.60;83.00;;;;;;10499227;28;20286;-77
2024/03/22 15:02:28;;;;;;;0.50;0.50;;;18.60;82.70;;;;;;10499774;28;20205;-77
2024/03/22 15:07:30;;;;;;;0.60;0.60;;;18.60;82.30;;;;;;10494656;28;20220;-77
2024/03/22 15:12:32;;;;;;;0.60;0.60;;;18.50;80.70;;;;;;10495034;28;20184;-76
2024/03/22 15:17:37;;;;;;;0.70;0.70;;;18.50;80.20;;;;;;10495516;28;20629;-77
2024/03/22 15:22:39;;;;;;;0.70;0.70;;;18.40;81.90;;;;;;10485658;28;20697;-77
2024/03/22 15:27:41;;;;;;;0.50;0.50;;;18.30;80.70;;;;;;10493170;28;20220;-76
2024/03/22 15:32:45;;;;;;;0.60;0.60;;;18.20;82.50;;;;;;10494349;28;20741;-77
2024/03/22 15:37:48;;;;;;;0.50;0.50;;;18.10;83.50;;;;;;10494123;28;20714;-77
2024/03/22 15:42:50;;;;;;;0.50;0.50;;;17.90;87.30;;;;;;10492368;28;20261;-76
2024/03/22 15:47:54;;;;;;;0.70;0.70;;;17.80;85.60;;;;;;10492941;28;20228;-77
2024/03/22 15:52:56;;;;;;;0.60;0.60;;;17.70;86.40;;;;;;10490399;28;20682;-77
2024/03/22 15:57:59;;;;;;;0.60;0.60;;;17.60;89.30;;;;;;10487690;28;20774;-77
2024/03/22 16:03:04;;;;;;;0.70;0.70;;;17.50;82.00;;;;;;10488951;28;20220;-77
2024/03/22 16:08:07;;;;;;;0.50;0.50;;;17.40;86.60;;;;;;10493027;28;20220;-77
2024/03/22 16:13:10;;;;;;;0.50;0.50;;;17.30;88.00;;;;;;10493680;28;20213;-77
2024/03/22 16:18:15;;;;;;;0.50;0.50;;;17.20;89.10;;;;;;10493231;28;20221;-77
2024/03/22 16:23:17;;;;;;;0.50;0.50;;;17.10;90.20;;;;;;10486394;28;20224;-77
2024/03/22 16:28:19;;;;;;;0.50;0.50;;;17.00;91.10;;;;;;10492661;28;20219;-77
2024/03/22 16:33:25;;;;;;;0.60;0.60;;;16.90;90.50;;;;;;10492681;28;20265;-77
2024/03/22 16:38:27;;;;;;;0.70;0.70;;;16.80;90.80;;;;;;10492356;28;20220;-77
2024/03/22 16:43:29;;;;;;;0.60;0.60;;;16.70;91.50;;;;;;10492450;28;20223;-77
2024/03/22 16:48:33;;;;;;;0.60;0.60;;;16.60;91.90;;;;;;10492088;28;20236;-78
2024/03/22 16:53:36;;;;;;;0.57;0.57;;;16.60;91.70;;;;;;10490380;28;20631;-77
2024/03/22 16:58:38;;;;;;;0.70;0.70;;;16.50;92.60;;;;;;10490383;28;20689;-77
2024/03/22 17:03:42;;;;;;;0.60;0.60;;;16.50;91.80;;;;;;10490475;28;20197;-76
2024/03/22 17:08:45;;;;;;;0.30;0.30;;;16.30;93.30;;;;;;10490562;28;20224;-77
2024/03/22 17:13:47;;;;;;;0.60;0.60;;;16.20;93.20;;;;;;10491883;28;20677;-77
2024/03/22 17:18:53;;;;;;;0.60;0.60;;;16.10;94.40;;;;;;10486841;28;20215;-76
2024/03/22 17:23:55;;;;;;;0.50;0.50;;;16.00;94.20;;;;;;10483188;28;20220;-76
2024/03/22 17:28:58;;;;;;;0.70;0.70;;;16.00;93.90;;;;;;10484024;28;20637;-79
2024/03/22 17:34:01;;;;;;;0.50;0.50;;;15.90;94.60;;;;;;10489907;28;20211;-76
2024/03/22 17:39:04;;;;;;;0.70;0.70;;;15.90;94.60;;;;;;10489648;28;20596;-76
2024/03/22 17:44:08;;;;;;;0.60;0.60;;;15.80;95.40;;;;;;10489845;28;20548;-76
2024/03/22 17:49:12;;;;;;;0.60;0.60;;;15.80;93.50;;;;;;10489400;28;20232;-75
2024/03/22 17:54:14;;;;;;;0.73;0.73;;;15.80;93.80;;;;;;10489965;28;20204;-76
2024/03/22 17:59:17;;;;;;;0.60;0.60;;;15.80;94.70;;;;;;10488753;28;20213;-79
2024/03/22 18:04:21;;;;;;;0.60;0.60;;;15.80;94.10;;;;;;10490353;28;20199;-76
2024/03/22 18:09:23;;;;;;;0.60;0.60;;;15.70;94.10;;;;;;10488118;28;20270;-80
2024/03/22 18:14:25;;;;;;;0.50;0.50;;;15.70;94.10;;;;;;10480933;28;20654;-78
2024/03/22 18:19:29;;;;;;;0.60;0.60;;;15.70;94.00;;;;;;10489008;28;20220;-75
2024/03/22 18:24:31;;;;;;;0.60;0.60;;;15.60;93.80;;;;;;10479830;28;20197;-78
2024/03/22 18:29:34;;;;;;;0.70;0.70;;;15.50;93.40;;;;;;10480500;28;20216;-79
2024/03/22 18:34:38;;;;;;;0.63;0.63;;;15.40;93.40;;;;;;10472949;28;20241;-77
2024/03/22 18:39:40;;;;;;;0.70;0.70;;;15.30;93.30;;;;;;10490222;28;20306;-76
2024/03/22 18:44:42;;;;;;;0.60;0.60;;;15.20;93.00;;;;;;10491145;28;20726;-76
2024/03/22 18:49:46;;;;;;;0.63;0.63;;;15.10;93.00;;;;;;10497317;28;20216;-77
2024/03/22 18:54:56;;;;;;;0.40;0.40;;;15.00;93.10;;;;;;10496707;28;20200;-76
2024/03/22 18:59:58;;;;;;;0.60;0.60;;;14.80;93.10;;;;;;10488536;28;20333;-77
2024/03/22 19:05:02;;;;;;;0.50;0.50;;;14.70;93.20;;;;;;10495893;28;20224;-76
2024/03/22 19:10:07;;;;;;;0.60;0.60;;;14.60;93.00;;;;;;10491571;28;20637;-75
2024/03/22 19:15:10;;;;;;;0.60;0.60;;;14.50;93.00;;;;;;10488517;28;20246;-77
2024/03/22 19:20:14;;;;;;;0.70;0.70;;;14.40;93.20;;;;;;10494639;28;20196;-74
2024/03/22 19:25:16;;;;;;;0.60;0.60;;;14.40;93.20;;;;;;10493979;28;20220;-75
2024/03/22 19:30:21;;;;;;;0.80;0.80;;;14.30;93.30;;;;;;10490507;28;20655;-74
2024/03/22 19:35:26;;;;;;;0.70;0.70;;;14.20;93.20;;;;;;10496822;28;20221;-75
2024/03/22 19:40:29;;;;;;;0.70;0.70;;;14.10;93.50;;;;;;10493917;28;20204;-75
2024/03/22 19:45:31;;;;;;;0.70;0.70;;;14.00;93.40;;;;;;10495502;28;20677;-75
2024/03/22 19:50:36;;;;;;;0.80;0.80;;;14.00;93.60;;;;;;10494415;28;20290;-75
2024/03/22 19:55:39;;;;;;;0.10;0.10;;;13.90;94.10;;;;;;10496815;28;20212;-75
2024/03/22 20:00:41;;;;;;;0.60;0.60;;;13.80;93.90;;;;;;10496575;28;20188;-76
2024/03/22 20:05:46;;;;;;;0.60;0.60;;;13.70;94.00;;;;;;10495796;28;20217;-75
2024/03/22 20:10:49;;;;;;;0.70;0.70;;;13.60;94.20;;;;;;10495552;28;20227;-74
2024/03/22 20:15:51;;;;;;;0.80;0.80;;;13.50;94.20;;;;;;10493687;28;20595;-75
2024/03/22 20:20:56;;;;;;;0.63;0.63;;;13.50;94.20;;;;;;10494980;28;20197;-75
2024/03/22 20:25:58;;;;;;;0.60;0.60;;;13.40;94.40;;;;;;10484734;28;20224;-75
2024/03/22 20:31:01;;;;;;;0.60;0.60;;;13.30;94.40;;;;;;10494405;28;20635;-76
2024/03/22 20:36:05;;;;;;;0.60;0.60;;;13.30;94.50;;;;;;10492572;28;20228;-77
2024/03/22 20:41:08;;;;;;;0.80;0.80;;;13.20;94.50;;;;;;10492083;28;20208;-76
2024/03/22 20:46:12;;;;;;;0.70;0.70;;;13.20;94.50;;;;;;10492491;28;20349;-78
2024/03/22 20:51:18;;;;;;;0.63;0.63;;;13.10;94.50;;;;;;10493056;28;20270;-75
2024/03/22 20:56:24;;;;;;;0.80;0.80;;;13.10;94.40;;;;;;10492602;28;20225;-75
2024/03/22 21:01:30;;;;;;;0.80;0.80;;;13.10;94.10;;;;;;10494628;28;20184;-77
2024/03/22 21:06:35;;;;;;;0.80;0.80;;;13.10;94.00;;;;;;10492043;28;20717;-76
2024/03/22 21:11:42;;;;;;;0.70;0.70;;;13.00;94.00;;;;;;10490030;28;20273;-75
2024/03/22 21:16:48;;;;;;;0.67;0.67;;;13.00;93.90;;;;;;10490309;28;20242;-76
2024/03/22 21:21:54;;;;;;;0.80;0.80;;;13.00;94.00;;;;;;10492551;28;20211;-76
2024/03/22 21:27:00;;;;;;;0.80;0.80;;;13.00;93.80;;;;;;10491225;28;20282;-75
2024/03/22 21:32:06;;;;;;;0.70;0.70;;;12.90;94.10;;;;;;10484618;28;20224;-76
2024/03/22 21:37:12;;;;;;;0.70;0.70;;;12.90;93.80;;;;;;10491667;28;20262;-76
2024/03/22 21:42:18;;;;;;;0.70;0.70;;;12.90;93.80;;;;;;10491546;28;20230;-76
2024/03/22 21:47:24;;;;;;;0.70;0.70;;;12.80;93.90;;;;;;10491034;28;20262;-76
2024/03/22 21:52:30;;;;;;;0.90;0.90;;;12.80;93.80;;;;;;10491269;28;20212;-77
2024/03/22 21:57:36;;;;;;;0.80;0.80;;;12.80;93.90;;;;;;10491387;28;20738;-77
2024/03/22 22:02:42;;;;;;;0.80;0.80;;;12.80;94.00;;;;;;10491276;28;20196;-76
2024/03/22 22:07:48;;;;;;;0.73;0.73;;;12.70;94.20;;;;;;10488959;28;20224;-77
2024/03/22 22:12:54;;;;;;;0.70;0.70;;;12.70;94.10;;;;;;10491348;28;20231;-75
2024/03/22 22:18:00;;;;;;;0.70;0.70;;;12.70;93.90;;;;;;10497440;28;20220;-78
2024/03/22 22:23:06;;;;;;;0.60;0.60;;;12.70;94.00;;;;;;10491973;28;20409;-76
2024/03/22 22:28:12;;;;;;;0.70;0.70;;;12.70;94.00;;;;;;10497912;28;20254;-76
2024/03/22 22:33:18;;;;;;;0.60;0.60;;;12.70;94.10;;;;;;10498891;28;20643;-77
2024/03/22 22:38:24;;;;;;;0.53;0.53;;;12.70;94.10;;;;;;10498089;28;20220;-77
2024/03/22 22:43:30;;;;;;;0.50;0.50;;;12.70;93.90;;;;;;10497515;28;20622;-80
2024/03/22 22:48:36;;;;;;;0.50;0.50;;;12.70;94.00;;;;;;10498364;28;20220;-79
2024/03/22 22:53:41;;;;;;;0.60;0.60;;;12.60;94.00;;;;;;10498506;28;20228;-74
2024/03/22 22:58:47;;;;;;;0.50;0.50;;;12.70;93.90;;;;;;10497493;28;20220;-76
2024/03/22 23:03:53;;;;;;;0.40;0.40;;;12.70;93.80;;;;;;10496719;28;21385;-76
2024/03/22 23:08:59;;;;;;;0.50;0.50;;;12.70;93.70;;;;;;10497119;28;20281;-76
2024/03/22 23:14:05;;;;;;;0.50;0.50;;;12.70;93.60;;;;;;10488451;28;20251;-76
2024/03/22 23:19:11;;;;;;;0.40;0.40;;;12.70;93.70;;;;;;10492345;28;20827;-76
2024/03/22 23:24:17;;;;;;;0.50;0.50;;;12.70;93.80;;;;;;10490328;28;20201;-76
2024/03/22 23:29:23;;;;;;;0.60;0.60;;;12.70;93.80;;;;;;10491679;28;20212;-76
2024/03/22 23:34:29;;;;;;;0.50;0.50;;;12.60;93.90;;;;;;10494860;28;20220;-75
2024/03/22 23:39:35;;;;;;;0.70;0.70;;;12.60;94.00;;;;;;10494579;28;20216;-74
2024/03/22 23:44:42;;;;;;;0.40;0.40;;;12.60;94.00;;;;;;10494773;28;20201;-73
2024/03/22 23:49:48;;;;;;;0.50;0.50;;;12.50;94.00;;;;;;10486498;28;20262;-75
2024/03/22 23:54:55;;;;;;;0.50;0.50;;;12.50;94.00;;;;;;10493863;28;20689;-77
